Time;durP1;ratioP1;P1;durP2;ratioP2;P2;SDS_P1;SDS_P2;PMS_P1;PMS_P2;Temp;Humidity;BMP_temperature;BMP_pressure;BME280_temperature;BME280_humidity;BME280_pressure;Samples;Min_cycle;Max_cycle;Signal;HPM_P1;HPM_P2
2022/01/13 00:01:17;;;;;;;0.63;0.63;;;0.80;99.90;;;;;;5068127;28;20696;-74
2022/01/13 00:03:43;;;;;;;0.52;0.52;;;0.70;99.90;;;;;;5068186;28;20350;-74
2022/01/13 00:06:09;;;;;;;0.60;0.60;;;0.90;99.90;;;;;;5066873;28;20216;-74
2022/01/13 00:08:34;;;;;;;2.40;1.00;;;0.90;99.90;;;;;;5065415;28;20608;-73
2022/01/13 00:11:00;;;;;;;0.65;0.65;;;0.80;99.90;;;;;;5067769;28;20291;-73
2022/01/13 00:13:32;;;;;;;0.50;0.50;;;1.10;99.90;;;;;;5065266;28;20207;-73
2022/01/13 00:18:50;;;;;;;0.50;0.50;;;1.20;99.90;;;;;;5067051;28;20210;-73
2022/01/13 00:21:31;;;;;;;1.23;1.13;;;1.00;99.90;;;;;;5064385;28;20231;-74
2022/01/13 00:24:00;;;;;;;0.50;0.50;;;0.80;99.90;;;;;;5067731;28;20212;-74
2022/01/13 00:26:28;;;;;;;1.38;1.27;;;0.70;99.90;;;;;;5066540;28;20216;-74
2022/01/13 00:28:56;;;;;;;0.50;0.50;;;0.70;99.90;;;;;;5068262;28;20719;-74
2022/01/13 00:31:27;;;;;;;0.60;0.60;;;0.80;99.90;;;;;;5067823;28;20656;-75
2022/01/13 00:33:57;;;;;;;0.50;0.50;;;0.70;99.90;;;;;;5068961;28;20648;-74
2022/01/13 00:36:28;;;;;;;0.50;0.50;;;0.60;99.90;;;;;;5069446;28;20695;-73
2022/01/13 00:38:55;;;;;;;0.57;0.57;;;0.70;99.90;;;;;;5070034;28;20723;-74
2022/01/13 00:41:23;;;;;;;0.50;0.50;;;0.70;99.90;;;;;;5070405;28;20209;-74
2022/01/13 00:43:49;;;;;;;0.60;0.60;;;0.70;99.90;;;;;;5069358;28;20210;-73
2022/01/13 00:46:23;;;;;;;0.70;0.70;;;0.90;99.90;;;;;;5068029;28;20299;-74
2022/01/13 00:48:51;;;;;;;0.70;0.70;;;0.90;99.90;;;;;;5070539;28;20288;-74
2022/01/13 00:51:18;;;;;;;0.60;0.60;;;1.00;99.90;;;;;;5070583;28;20737;-74
2022/01/13 00:53:44;;;;;;;0.50;0.50;;;0.90;99.90;;;;;;5059084;28;20212;-74
2022/01/13 00:56:10;;;;;;;0.60;0.60;;;1.00;99.90;;;;;;5069009;28;20209;-74
2022/01/13 00:58:37;;;;;;;0.52;0.52;;;1.00;99.90;;;;;;5070838;28;20546;-75
2022/01/13 01:01:06;;;;;;;0.50;0.50;;;1.10;99.90;;;;;;5071847;28;20250;-74
2022/01/13 01:03:33;;;;;;;0.50;0.50;;;1.10;99.90;;;;;;5071780;28;20225;-74
2022/01/13 01:06:00;;;;;;;0.60;0.60;;;1.00;99.90;;;;;;5070805;28;20741;-74
2022/01/13 01:08:26;;;;;;;0.50;0.50;;;0.90;99.90;;;;;;5072435;28;20200;-73
2022/01/13 01:10:54;;;;;;;0.60;0.60;;;0.80;99.90;;;;;;5070232;28;20204;-73
2022/01/13 01:13:25;;;;;;;0.70;0.70;;;0.80;99.90;;;;;;5069959;28;20577;-74
2022/01/13 01:15:54;;;;;;;0.60;0.60;;;0.90;99.90;;;;;;5071055;28;20197;-73
2022/01/13 01:21:05;;;;;;;0.60;0.60;;;0.90;99.90;;;;;;5070032;28;20204;-74
2022/01/13 01:23:38;;;;;;;0.70;0.70;;;0.80;99.90;;;;;;5070821;28;20212;-74
2022/01/13 01:26:21;;;;;;;0.60;0.60;;;0.80;99.90;;;;;;5069773;28;20204;-74
2022/01/13 01:28:55;;;;;;;0.60;0.60;;;0.70;99.90;;;;;;5069814;28;20201;-74
2022/01/13 01:31:27;;;;;;;0.63;0.63;;;0.70;99.90;;;;;;5070388;28;20204;-74
2022/01/13 01:34:15;;;;;;;0.60;0.60;;;0.80;99.90;;;;;;5070829;28;20204;-74
2022/01/13 01:36:42;;;;;;;0.50;0.50;;;0.70;99.90;;;;;;5071978;28;20800;-75
2022/01/13 01:39:08;;;;;;;0.70;0.70;;;0.70;99.90;;;;;;5101281;28;20608;-74
2022/01/13 01:41:40;;;;;;;0.60;0.60;;;0.60;99.90;;;;;;5066885;28;20686;-74
2022/01/13 01:44:08;;;;;;;0.57;0.57;;;0.60;99.90;;;;;;5069410;28;20201;-75
2022/01/13 01:46:34;;;;;;;0.60;0.60;;;0.60;99.90;;;;;;5069288;28;20243;-75
2022/01/13 01:49:04;;;;;;;1.63;1.40;;;0.60;99.90;;;;;;5063061;28;20197;-75
2022/01/13 01:51:30;;;;;;;0.50;0.50;;;0.60;99.90;;;;;;5065424;28;20197;-75
2022/01/13 01:53:55;;;;;;;0.40;0.40;;;0.50;99.90;;;;;;5069064;28;20211;-74
2022/01/13 01:56:21;;;;;;;0.60;0.60;;;0.50;99.90;;;;;;5062953;28;20570;-74
2022/01/13 01:58:46;;;;;;;0.60;0.60;;;0.40;99.90;;;;;;5061996;28;20213;-75
2022/01/13 02:01:13;;;;;;;0.70;0.70;;;0.30;99.90;;;;;;5068940;28;20193;-74
2022/01/13 02:03:40;;;;;;;0.55;0.55;;;0.30;99.90;;;;;;5064422;28;20287;-74
2022/01/13 02:06:05;;;;;;;0.50;0.50;;;0.30;99.90;;;;;;5066553;28;20208;-74
2022/01/13 02:08:31;;;;;;;0.60;0.60;;;0.20;99.90;;;;;;5069289;28;20200;-74
2022/01/13 02:10:57;;;;;;;0.50;0.50;;;0.30;99.90;;;;;;5069084;28;20200;-74
2022/01/13 02:13:24;;;;;;;0.63;0.63;;;0.30;99.90;;;;;;5068729;28;20193;-74
2022/01/13 02:16:02;;;;;;;0.60;0.60;;;0.20;99.90;;;;;;5070048;28;20212;-74
2022/01/13 02:18:30;;;;;;;0.60;0.60;;;0.30;99.90;;;;;;5067442;28;20197;-74
2022/01/13 02:20:56;;;;;;;0.52;0.52;;;0.20;99.90;;;;;;5069904;28;20202;-74
2022/01/13 02:23:33;;;;;;;0.50;0.50;;;0.20;99.90;;;;;;5067222;28;20212;-74
2022/01/13 02:25:59;;;;;;;0.60;0.60;;;0.10;99.90;;;;;;5068584;28;20213;-74
2022/01/13 02:28:25;;;;;;;0.60;0.60;;;0.00;99.90;;;;;;5070104;28;20595;-74
2022/01/13 02:30:51;;;;;;;0.60;0.60;;;0.00;99.90;;;;;;5068016;28;20227;-74
2022/01/13 02:33:17;;;;;;;0.60;0.60;;;0.10;99.90;;;;;;5071020;28;20670;-74
2022/01/13 02:35:42;;;;;;;0.65;0.65;;;0.20;99.90;;;;;;5069772;28;20205;-74
2022/01/13 02:38:10;;;;;;;0.65;0.65;;;0.10;99.90;;;;;;5068543;28;20287;-74
2022/01/13 02:40:36;;;;;;;0.60;0.60;;;0.10;99.90;;;;;;5052738;28;20213;-74
2022/01/13 02:43:02;;;;;;;0.60;0.60;;;0.00;99.90;;;;;;5067434;28;20201;-74
2022/01/13 02:45:33;;;;;;;0.57;0.57;;;-0.10;99.90;;;;;;5067539;28;20258;-74
2022/01/13 02:48:25;;;;;;;0.80;0.80;;;0.00;99.90;;;;;;5068004;28;20667;-74
2022/01/13 02:50:45;;;;;;;3.72;1.13;;;0.00;99.90;;;;;;5069042;28;20672;-74
2022/01/13 02:53:11;;;;;;;0.65;0.65;;;0.00;99.90;;;;;;5068234;28;20245;-73
2022/01/13 02:55:37;;;;;;;0.60;0.60;;;0.00;99.90;;;;;;5064155;28;20209;-74
2022/01/13 02:58:03;;;;;;;0.70;0.70;;;0.10;99.90;;;;;;5064936;28;20568;-74
2022/01/13 03:00:30;;;;;;;0.63;0.63;;;0.10;99.90;;;;;;5061775;28;20201;-75
2022/01/13 03:03:25;;;;;;;0.70;0.70;;;0.10;99.90;;;;;;5060474;28;20232;-75
2022/01/13 03:05:51;;;;;;;2.25;1.52;;;0.20;99.90;;;;;;5067815;28;20675;-74
2022/01/13 03:08:17;;;;;;;0.60;0.60;;;0.10;99.90;;;;;;5066659;28;20204;-74
2022/01/13 03:10:42;;;;;;;0.70;0.70;;;0.10;99.90;;;;;;5067765;28;20207;-75
2022/01/13 03:13:09;;;;;;;0.80;0.80;;;0.10;99.90;;;;;;5067319;28;20606;-74
2022/01/13 03:15:34;;;;;;;0.60;0.60;;;0.10;99.90;;;;;;5068601;28;20200;-74
2022/01/13 03:18:00;;;;;;;0.60;0.60;;;0.10;99.90;;;;;;5068885;28;20238;-74
2022/01/13 03:20:26;;;;;;;0.70;0.70;;;0.10;99.90;;;;;;5068454;28;20292;-74
2022/01/13 03:22:52;;;;;;;0.50;0.50;;;0.00;99.90;;;;;;5068721;28;20203;-74
2022/01/13 03:25:22;;;;;;;0.70;0.70;;;0.00;99.90;;;;;;5057153;28;20233;-74
2022/01/13 03:28:03;;;;;;;0.60;0.60;;;0.00;99.90;;;;;;5043698;28;20209;-75
2022/01/13 03:30:29;;;;;;;0.63;0.63;;;0.00;99.90;;;;;;5067080;28;20291;-74
2022/01/13 03:32:55;;;;;;;0.68;0.68;;;0.00;99.90;;;;;;5064442;28;20200;-75
2022/01/13 03:35:20;;;;;;;0.60;0.60;;;0.00;99.90;;;;;;5056314;28;20205;-75
2022/01/13 03:37:46;;;;;;;0.63;0.63;;;0.10;99.90;;;;;;5059895;28;20241;-74
2022/01/13 03:40:12;;;;;;;0.70;0.70;;;0.20;99.90;;;;;;5042177;28;20205;-75
2022/01/13 03:42:38;;;;;;;0.68;0.68;;;0.10;99.90;;;;;;5066137;28;20197;-75
2022/01/13 03:45:05;;;;;;;0.60;0.60;;;0.10;99.90;;;;;;5052262;28;20205;-75
2022/01/13 03:47:30;;;;;;;0.60;0.60;;;0.00;99.90;;;;;;5051891;28;20189;-75
2022/01/13 03:49:56;;;;;;;0.70;0.70;;;0.00;99.90;;;;;;5050590;28;20260;-75
2022/01/13 03:52:22;;;;;;;0.60;0.60;;;0.00;99.90;;;;;;5051602;28;20200;-76
2022/01/13 03:55:09;;;;;;;0.50;0.50;;;0.10;99.90;;;;;;5050917;28;20205;-75
2022/01/13 03:58:11;;;;;;;0.52;0.52;;;0.00;99.90;;;;;;5044678;28;20206;-74
2022/01/13 04:01:04;;;;;;;0.60;0.60;;;0.00;99.90;;;;;;5043843;28;20197;-74
2022/01/13 04:03:30;;;;;;;0.60;0.60;;;0.00;99.90;;;;;;5060024;28;20237;-74
2022/01/13 04:06:11;;;;;;;0.60;0.60;;;0.00;99.90;;;;;;5057520;28;20213;-74
2022/01/13 04:08:38;;;;;;;0.50;0.50;;;0.00;99.90;;;;;;5064880;28;20231;-74
2022/01/13 04:11:04;;;;;;;0.70;0.70;;;0.00;99.90;;;;;;5067042;28;20201;-74
2022/01/13 04:13:50;;;;;;;0.68;0.68;;;0.00;99.90;;;;;;5066754;28;20261;-74
2022/01/13 04:16:19;;;;;;;0.50;0.50;;;-0.10;99.90;;;;;;5064434;28;20211;-74
2022/01/13 04:18:46;;;;;;;0.60;0.60;;;-0.10;99.90;;;;;;5064434;28;20207;-75
2022/01/13 04:21:11;;;;;;;0.60;0.60;;;0.00;99.90;;;;;;5050363;28;20198;-74
2022/01/13 04:23:38;;;;;;;0.60;0.60;;;0.00;99.90;;;;;;5046519;28;20584;-74
2022/01/13 04:26:07;;;;;;;0.57;0.57;;;0.10;99.90;;;;;;5062029;28;20259;-75
2022/01/13 04:28:34;;;;;;;0.70;0.70;;;0.10;99.90;;;;;;5057664;28;20201;-75
2022/01/13 04:31:00;;;;;;;0.50;0.50;;;0.00;99.90;;;;;;5055833;28;20198;-74
2022/01/13 04:33:34;;;;;;;0.50;0.50;;;0.00;99.90;;;;;;5044640;28;20618;-75
2022/01/13 04:36:01;;;;;;;0.70;0.70;;;0.00;99.90;;;;;;5062277;28;20620;-74
2022/01/13 04:38:27;;;;;;;0.50;0.50;;;0.00;99.90;;;;;;5054247;28;20620;-74
2022/01/13 04:40:58;;;;;;;0.60;0.60;;;0.00;99.90;;;;;;5057673;28;20205;-74
2022/01/13 04:43:25;;;;;;;0.63;0.63;;;0.10;99.90;;;;;;5043255;28;20211;-75
2022/01/13 04:45:51;;;;;;;0.50;0.50;;;0.00;99.90;;;;;;5045880;28;20252;-72
2022/01/13 04:48:18;;;;;;;0.60;0.60;;;0.00;99.90;;;;;;5040887;28;20604;-73
2022/01/13 04:50:45;;;;;;;0.50;0.50;;;0.40;99.90;;;;;;5059962;28;20217;-73
2022/01/13 04:53:11;;;;;;;0.70;0.70;;;0.60;99.90;;;;;;5039103;28;20204;-73
2022/01/13 04:55:38;;;;;;;0.60;0.60;;;0.50;99.90;;;;;;5035740;28;20240;-73
2022/01/13 04:58:05;;;;;;;0.60;0.60;;;0.80;99.90;;;;;;5051071;28;20640;-73
2022/01/13 05:00:33;;;;;;;0.60;0.60;;;0.70;99.90;;;;;;5065800;28;20599;-74
2022/01/13 05:02:59;;;;;;;0.60;0.60;;;0.90;99.90;;;;;;5051691;28;20271;-73
2022/01/13 05:05:26;;;;;;;0.50;0.50;;;0.90;99.90;;;;;;5065518;28;20709;-73
2022/01/13 05:07:52;;;;;;;0.70;0.70;;;0.70;99.90;;;;;;5050839;28;20569;-73
2022/01/13 05:10:19;;;;;;;0.60;0.60;;;0.60;99.90;;;;;;5066450;28;20206;-75
2022/01/13 05:12:47;;;;;;;0.50;0.50;;;0.50;99.90;;;;;;5050536;28;20272;-75
2022/01/13 05:15:19;;;;;;;0.52;0.52;;;0.40;99.90;;;;;;5032247;28;20191;-78
2022/01/13 05:20:23;;;;;;;0.52;0.52;;;0.10;99.90;;;;;;5037528;28;20268;-74
2022/01/13 05:22:49;;;;;;;0.60;0.60;;;0.10;99.90;;;;;;5037688;28;20201;-74
2022/01/13 05:25:16;;;;;;;0.57;0.57;;;0.30;99.90;;;;;;5071847;28;20213;-74
2022/01/13 05:27:42;;;;;;;0.60;0.60;;;0.60;99.90;;;;;;5052166;28;20660;-75
2022/01/13 05:30:09;;;;;;;0.60;0.60;;;0.70;99.90;;;;;;5071783;28;20193;-74
2022/01/13 05:32:35;;;;;;;0.65;0.65;;;0.90;99.90;;;;;;5071955;28;20204;-74
2022/01/13 05:35:01;;;;;;;0.50;0.50;;;0.80;99.90;;;;;;5055083;28;20213;-75
2022/01/13 05:37:27;;;;;;;0.60;0.60;;;1.10;99.90;;;;;;5069334;28;20224;-73
2022/01/13 05:39:53;;;;;;;0.60;0.60;;;1.20;99.90;;;;;;5069530;28;20204;-74
2022/01/13 05:42:18;;;;;;;0.65;0.65;;;1.30;99.90;;;;;;5061253;28;20201;-74
2022/01/13 05:44:44;;;;;;;1.00;1.00;;;1.40;99.90;;;;;;5065892;28;20220;-75
2022/01/13 05:47:11;;;;;;;0.85;0.85;;;1.50;99.90;;;;;;5068177;28;20204;-75
2022/01/13 05:49:40;;;;;;;0.63;0.63;;;1.40;99.90;;;;;;5069101;28;20338;-74
2022/01/13 05:52:06;;;;;;;1.23;1.15;;;1.30;99.90;;;;;;5061426;28;20247;-74
2022/01/13 05:54:32;;;;;;;0.57;0.57;;;1.50;99.90;;;;;;5061815;28;20543;-75
2022/01/13 05:56:58;;;;;;;0.52;0.52;;;1.70;99.90;;;;;;5069561;28;20197;-74
2022/01/13 05:59:24;;;;;;;0.60;0.60;;;1.40;99.90;;;;;;5069001;28;20263;-75
2022/01/13 06:01:50;;;;;;;0.70;0.70;;;1.50;99.90;;;;;;5070214;28;20306;-75
2022/01/13 06:04:16;;;;;;;0.98;0.98;;;1.40;99.90;;;;;;5069124;28;20248;-76
2022/01/13 06:06:42;;;;;;;0.60;0.60;;;1.50;99.90;;;;;;5068091;28;20240;-74
2022/01/13 06:09:07;;;;;;;0.60;0.60;;;1.80;99.90;;;;;;5070138;28;20205;-75
2022/01/13 06:11:51;;;;;;;0.65;0.65;;;1.60;99.90;;;;;;5069739;28;20278;-75
2022/01/13 06:14:17;;;;;;;0.60;0.60;;;1.40;99.90;;;;;;5070127;28;20200;-76
2022/01/13 06:16:43;;;;;;;0.50;0.50;;;1.20;99.90;;;;;;5069929;28;20197;-74
2022/01/13 06:19:09;;;;;;;0.60;0.60;;;1.10;99.90;;;;;;5068192;28;20572;-75
2022/01/13 06:21:35;;;;;;;0.60;0.60;;;1.00;99.90;;;;;;5069190;28;20221;-76
2022/01/13 06:24:00;;;;;;;0.60;0.60;;;0.90;99.90;;;;;;5071004;28;20197;-76
2022/01/13 06:26:27;;;;;;;4.13;0.98;;;0.70;99.90;;;;;;5069930;28;20213;-74
2022/01/13 06:28:53;;;;;;;0.60;0.60;;;0.90;99.90;;;;;;5070983;28;20283;-75
2022/01/13 06:31:18;;;;;;;0.70;0.70;;;0.90;99.90;;;;;;5050729;28;20302;-76
2022/01/13 06:33:44;;;;;;;0.60;0.60;;;1.10;99.90;;;;;;5066865;28;20617;-75
2022/01/13 06:36:10;;;;;;;2.30;1.33;;;1.10;99.90;;;;;;5067162;28;20208;-74
2022/01/13 06:38:36;;;;;;;0.68;0.68;;;0.90;99.90;;;;;;5065838;28;20205;-75
2022/01/13 06:41:02;;;;;;;0.68;0.68;;;0.80;99.90;;;;;;5069373;28;20208;-74
2022/01/13 06:43:28;;;;;;;0.60;0.60;;;0.70;99.90;;;;;;5065830;28;20614;-74
2022/01/13 06:45:54;;;;;;;0.55;0.55;;;0.60;99.90;;;;;;5065874;28;20299;-75
2022/01/13 06:48:20;;;;;;;0.60;0.60;;;0.50;99.90;;;;;;5068158;28;20635;-75
2022/01/13 06:50:46;;;;;;;0.60;0.60;;;0.40;99.90;;;;;;5065637;28;20290;-75
2022/01/13 06:53:12;;;;;;;0.57;0.57;;;0.20;99.90;;;;;;5065689;28;20287;-75
2022/01/13 06:55:37;;;;;;;0.50;0.50;;;0.20;99.90;;;;;;5066737;28;20583;-76
2022/01/13 06:58:03;;;;;;;0.63;0.63;;;0.20;99.90;;;;;;5056604;28;20196;-73
2022/01/13 07:00:29;;;;;;;0.63;0.63;;;0.20;99.90;;;;;;5065362;28;20289;-74
2022/01/13 07:02:58;;;;;;;0.50;0.50;;;0.30;99.90;;;;;;5067771;28;20194;-75
2022/01/13 07:05:24;;;;;;;0.50;0.50;;;0.60;99.90;;;;;;5068843;28;20209;-73
2022/01/13 07:07:50;;;;;;;0.60;0.60;;;0.60;99.90;;;;;;5068664;28;20708;-74
2022/01/13 07:10:16;;;;;;;0.60;0.60;;;0.90;99.90;;;;;;5069799;28;20219;-74
2022/01/13 07:12:43;;;;;;;0.50;0.50;;;0.90;99.90;;;;;;5069177;28;20201;-74
2022/01/13 07:15:10;;;;;;;0.60;0.60;;;1.10;99.90;;;;;;5068261;28;20212;-76
2022/01/13 07:17:36;;;;;;;0.70;0.70;;;1.30;99.90;;;;;;5067216;28;20208;-74
2022/01/13 07:20:04;;;;;;;0.60;0.60;;;1.30;99.90;;;;;;5067495;28;20209;-73
2022/01/13 07:22:30;;;;;;;0.60;0.60;;;1.40;99.90;;;;;;5068514;28;20224;-74
2022/01/13 07:24:56;;;;;;;0.52;0.52;;;1.60;99.90;;;;;;5068771;28;20205;-75
2022/01/13 07:27:22;;;;;;;0.63;0.63;;;2.10;99.90;;;;;;5067865;28;20259;-74
2022/01/13 07:29:48;;;;;;;0.60;0.60;;;2.00;99.90;;;;;;5067536;28;20281;-75
2022/01/13 07:32:18;;;;;;;6.43;1.60;;;2.10;99.90;;;;;;5065081;28;20631;-73
2022/01/13 07:34:44;;;;;;;0.73;0.60;;;2.20;99.90;;;;;;5067367;28;20201;-75
2022/01/13 07:37:09;;;;;;;0.60;0.60;;;2.20;99.90;;;;;;5067387;28;20197;-75
2022/01/13 07:39:38;;;;;;;0.55;0.55;;;2.10;99.90;;;;;;5068298;28;20201;-76
2022/01/13 07:42:05;;;;;;;0.60;0.60;;;2.10;99.90;;;;;;5066328;28;20197;-76
2022/01/13 07:44:31;;;;;;;0.55;0.55;;;2.10;99.90;;;;;;5066933;28;20220;-76
2022/01/13 07:46:59;;;;;;;1.48;1.05;;;2.30;99.90;;;;;;5062877;28;20197;-75
2022/01/13 07:49:25;;;;;;;0.60;0.60;;;2.30;99.90;;;;;;5067015;28;20569;-75
2022/01/13 07:51:51;;;;;;;0.60;0.60;;;2.30;99.90;;;;;;5068215;28;20205;-75
2022/01/13 07:54:17;;;;;;;0.60;0.60;;;2.20;99.90;;;;;;5067178;28;20567;-75
2022/01/13 07:56:42;;;;;;;0.57;0.57;;;2.00;99.90;;;;;;5060225;28;20296;-75
2022/01/13 07:59:08;;;;;;;0.70;0.70;;;1.80;99.90;;;;;;5050118;28;20209;-74
2022/01/13 08:01:34;;;;;;;0.60;0.60;;;1.50;99.90;;;;;;5067361;28;20656;-75
2022/01/13 08:03:59;;;;;;;0.60;0.60;;;1.70;99.90;;;;;;5068866;28;20228;-74
2022/01/13 08:06:25;;;;;;;0.60;0.60;;;1.50;99.90;;;;;;5068939;28;20588;-76
2022/01/13 08:08:51;;;;;;;0.60;0.60;;;1.30;99.90;;;;;;5066955;28;20263;-74
2022/01/13 08:11:17;;;;;;;0.50;0.50;;;1.20;99.90;;;;;;5067990;28;20278;-75
2022/01/13 08:13:43;;;;;;;0.50;0.50;;;1.10;99.90;;;;;;5064660;28;20200;-76
2022/01/13 08:16:10;;;;;;;0.50;0.50;;;1.00;99.90;;;;;;5055248;28;20210;-75
2022/01/13 08:21:23;;;;;;;0.68;0.68;;;0.90;99.90;;;;;;5066599;28;20227;-76
2022/01/13 08:23:50;;;;;;;0.47;0.47;;;0.90;99.90;;;;;;5067980;28;20205;-76
2022/01/13 08:26:17;;;;;;;0.60;0.60;;;1.00;99.90;;;;;;5065322;28;20216;-75
2022/01/13 08:28:42;;;;;;;0.55;0.55;;;1.00;99.90;;;;;;5065269;28;20288;-76
2022/01/13 08:31:08;;;;;;;0.80;0.80;;;1.00;99.90;;;;;;5064355;28;20319;-77
2022/01/13 08:33:34;;;;;;;0.70;0.70;;;1.00;99.90;;;;;;5066449;28;20250;-76
2022/01/13 08:35:59;;;;;;;0.60;0.60;;;1.00;99.90;;;;;;5065396;28;20204;-76
2022/01/13 08:38:25;;;;;;;0.60;0.60;;;1.00;99.90;;;;;;5065018;28;20208;-77
2022/01/13 08:40:54;;;;;;;0.70;0.70;;;1.00;99.90;;;;;;5066925;28;20279;-75
2022/01/13 08:43:21;;;;;;;0.60;0.60;;;1.10;99.90;;;;;;5065576;28;20196;-76
2022/01/13 08:45:47;;;;;;;0.57;0.57;;;1.20;99.90;;;;;;5066673;28;20244;-76
2022/01/13 08:48:14;;;;;;;0.52;0.52;;;1.20;99.90;;;;;;5065221;28;20716;-76
2022/01/13 08:50:40;;;;;;;0.50;0.50;;;1.20;99.90;;;;;;5067469;28;20205;-75
2022/01/13 08:53:06;;;;;;;0.80;0.80;;;1.50;99.90;;;;;;5066842;28;20704;-75
2022/01/13 08:55:32;;;;;;;0.52;0.52;;;1.50;99.90;;;;;;5069968;28;20205;-75
2022/01/13 08:57:58;;;;;;;0.60;0.60;;;1.50;99.90;;;;;;5088609;28;20672;-75
2022/01/13 09:00:24;;;;;;;0.60;0.60;;;1.40;99.90;;;;;;5071760;28;20288;-75
2022/01/13 09:02:50;;;;;;;0.55;0.55;;;1.30;99.90;;;;;;5071640;28;20205;-76
2022/01/13 09:05:17;;;;;;;0.80;0.80;;;1.10;99.90;;;;;;5072085;28;20554;-76
2022/01/13 09:07:43;;;;;;;0.70;0.70;;;1.10;99.90;;;;;;5071405;28;20200;-75
2022/01/13 09:10:11;;;;;;;0.50;0.50;;;1.00;99.90;;;;;;5038950;28;20206;-75
2022/01/13 09:12:37;;;;;;;0.60;0.60;;;1.20;99.90;;;;;;5067161;28;20204;-74
2022/01/13 09:15:15;;;;;;;0.52;0.52;;;1.30;99.90;;;;;;5071243;28;20209;-75
2022/01/13 09:17:43;;;;;;;0.73;0.73;;;1.40;99.90;;;;;;5070982;28;20196;-75
2022/01/13 09:20:11;;;;;;;0.57;0.57;;;1.40;99.90;;;;;;5071100;28;20196;-75
2022/01/13 09:22:36;;;;;;;0.57;0.57;;;1.50;99.90;;;;;;5071388;28;20205;-74
2022/01/13 09:25:03;;;;;;;0.63;0.63;;;1.50;99.90;;;;;;5068621;28;20235;-75
2022/01/13 09:27:28;;;;;;;0.52;0.52;;;1.80;99.90;;;;;;5069774;28;20647;-75
2022/01/13 09:29:54;;;;;;;0.50;0.50;;;2.00;99.90;;;;;;5068447;28;20287;-74
2022/01/13 09:32:20;;;;;;;0.50;0.50;;;1.90;99.90;;;;;;5061305;28;20236;-75
2022/01/13 09:34:45;;;;;;;0.60;0.60;;;1.90;99.90;;;;;;5061463;28;20204;-74
2022/01/13 09:37:11;;;;;;;0.60;0.60;;;2.00;99.90;;;;;;5070668;28;20196;-75
2022/01/13 09:39:37;;;;;;;0.70;0.70;;;2.00;99.90;;;;;;5070482;28;20201;-75
2022/01/13 09:42:05;;;;;;;0.60;0.60;;;1.90;99.90;;;;;;5069745;28;20212;-74
2022/01/13 09:44:32;;;;;;;0.50;0.50;;;2.00;99.90;;;;;;5068281;28;20205;-74
2022/01/13 09:46:58;;;;;;;0.52;0.52;;;2.00;99.90;;;;;;5067510;28;20200;-75
2022/01/13 09:49:25;;;;;;;0.63;0.63;;;2.00;99.90;;;;;;5069054;28;20270;-76
2022/01/13 09:51:50;;;;;;;0.60;0.60;;;2.10;99.90;;;;;;5070604;28;20287;-76
2022/01/13 09:54:16;;;;;;;0.60;0.60;;;2.10;99.90;;;;;;5069949;28;20288;-74
2022/01/13 09:56:42;;;;;;;0.60;0.60;;;2.00;99.90;;;;;;5063712;28;20205;-74
2022/01/13 09:59:08;;;;;;;0.68;0.68;;;2.10;99.90;;;;;;5071739;28;20283;-75
2022/01/13 10:01:34;;;;;;;0.65;0.65;;;2.20;99.90;;;;;;5069168;28;20672;-74
2022/01/13 10:04:00;;;;;;;0.55;0.55;;;2.10;99.90;;;;;;5068114;28;20240;-74
2022/01/13 10:06:26;;;;;;;0.60;0.60;;;2.00;99.90;;;;;;5066563;28;20208;-73
2022/01/13 10:08:57;;;;;;;0.70;0.70;;;1.90;99.90;;;;;;5069088;28;20203;-75
2022/01/13 10:11:44;;;;;;;0.60;0.60;;;1.80;99.90;;;;;;5068814;28;20200;-75
2022/01/13 10:16:50;;;;;;;0.80;0.80;;;2.00;99.90;;;;;;5068735;28;20677;-75
2022/01/13 10:19:41;;;;;;;0.68;0.68;;;2.20;99.90;;;;;;5068976;28;20208;-76
2022/01/13 10:22:08;;;;;;;0.50;0.50;;;2.20;99.90;;;;;;5069690;28;20218;-77
2022/01/13 10:24:36;;;;;;;0.57;0.57;;;2.20;99.90;;;;;;5067985;28;20711;-76
2022/01/13 10:27:23;;;;;;;0.70;0.70;;;2.20;99.90;;;;;;5069070;28;20564;-75
2022/01/13 10:29:52;;;;;;;0.70;0.70;;;2.30;99.90;;;;;;5070013;28;20197;-76
2022/01/13 10:32:23;;;;;;;0.60;0.60;;;2.30;99.90;;;;;;5070887;28;20230;-74
2022/01/13 10:34:55;;;;;;;0.55;0.55;;;2.30;99.90;;;;;;5069317;28;20209;-75
2022/01/13 10:37:35;;;;;;;0.60;0.60;;;2.50;99.90;;;;;;5085523;28;20209;-75
2022/01/13 10:40:09;;;;;;;0.70;0.70;;;2.50;99.90;;;;;;5086004;28;20578;-74
2022/01/13 10:43:31;;;;;;;0.57;0.57;;;2.40;99.90;;;;;;5085090;28;20233;-75
2022/01/13 10:45:40;;;;;;;0.57;0.57;;;2.40;99.90;;;;;;5035910;28;20271;-75
2022/01/13 10:48:22;;;;;;;0.50;0.50;;;2.30;99.90;;;;;;5054075;28;20616;-76
2022/01/13 10:50:55;;;;;;;0.60;0.60;;;2.40;99.90;;;;;;5061725;28;20205;-76
2022/01/13 10:53:33;;;;;;;0.60;0.60;;;2.30;99.90;;;;;;5044244;28;20683;-76
2022/01/13 10:56:00;;;;;;;0.90;0.90;;;2.20;99.90;;;;;;5059420;28;20567;-76
2022/01/13 10:58:35;;;;;;;0.60;0.60;;;2.30;99.90;;;;;;5044408;28;20217;-76
2022/01/13 11:01:02;;;;;;;0.75;0.75;;;2.30;99.90;;;;;;5058634;28;20212;-75
2022/01/13 11:03:30;;;;;;;0.60;0.60;;;2.30;99.90;;;;;;5057777;28;20319;-76
2022/01/13 11:06:01;;;;;;;0.60;0.60;;;2.30;99.90;;;;;;5067919;28;20228;-75
2022/01/13 11:08:32;;;;;;;0.50;0.50;;;2.40;99.90;;;;;;5066949;28;20201;-75
2022/01/13 11:11:02;;;;;;;0.50;0.50;;;2.50;99.90;;;;;;5065291;28;20196;-75
2022/01/13 11:13:33;;;;;;;0.50;0.50;;;2.50;99.90;;;;;;5054252;28;20205;-75
2022/01/13 11:15:58;;;;;;;0.60;0.60;;;2.50;99.90;;;;;;5067792;28;20300;-75
2022/01/13 11:18:27;;;;;;;0.80;0.80;;;2.60;99.90;;;;;;5067647;28;20209;-76
2022/01/13 11:20:55;;;;;;;0.50;0.50;;;2.60;99.90;;;;;;5067849;28;20198;-75
2022/01/13 11:23:21;;;;;;;0.50;0.50;;;2.60;99.90;;;;;;5053487;28;20611;-75
2022/01/13 11:25:53;;;;;;;0.50;0.50;;;2.70;99.90;;;;;;5052814;28;20205;-75
2022/01/13 11:28:20;;;;;;;0.60;0.60;;;2.90;99.90;;;;;;5067879;28;20212;-76
2022/01/13 11:30:49;;;;;;;0.70;0.70;;;3.00;99.90;;;;;;5051068;28;20237;-76
2022/01/13 11:33:16;;;;;;;0.50;0.50;;;3.20;99.90;;;;;;5049207;28;20224;-75
2022/01/13 11:35:48;;;;;;;0.50;0.50;;;3.30;99.90;;;;;;5050984;28;20200;-75
2022/01/13 11:38:16;;;;;;;0.60;0.60;;;3.70;99.90;;;;;;5032823;28;20253;-75
2022/01/13 11:40:45;;;;;;;0.70;0.70;;;4.00;99.90;;;;;;5051952;28;20209;-75
2022/01/13 11:43:22;;;;;;;0.70;0.70;;;4.00;99.90;;;;;;5068492;28;20196;-75
2022/01/13 11:45:49;;;;;;;0.60;0.60;;;4.00;99.90;;;;;;5034744;28;20209;-74
2022/01/13 11:48:25;;;;;;;0.50;0.50;;;4.20;99.90;;;;;;5069571;28;20215;-75
2022/01/13 11:50:56;;;;;;;0.60;0.60;;;4.40;99.90;;;;;;5069342;28;20262;-76
2022/01/13 11:53:31;;;;;;;15.43;1.33;;;4.50;99.90;;;;;;5068215;28;20291;-76
2022/01/13 11:55:59;;;;;;;0.50;0.50;;;4.50;99.90;;;;;;5066335;28;20185;-75
2022/01/13 11:58:31;;;;;;;0.60;0.60;;;4.60;99.90;;;;;;5069103;28;20307;-76
2022/01/13 12:01:18;;;;;;;0.60;0.60;;;4.90;99.90;;;;;;5067826;28;20205;-76
2022/01/13 12:03:48;;;;;;;0.60;0.60;;;5.00;99.90;;;;;;5033127;28;20233;-76
2022/01/13 12:06:41;;;;;;;0.60;0.60;;;5.10;99.90;;;;;;5067574;28;20205;-76
2022/01/13 12:09:12;;;;;;;0.65;0.65;;;5.10;99.90;;;;;;5050770;28;20197;-76
2022/01/13 12:11:46;;;;;;;0.60;0.60;;;5.10;99.90;;;;;;5065409;28;20195;-76
2022/01/13 12:14:38;;;;;;;5.68;2.15;;;5.30;99.90;;;;;;5066999;28;20224;-76
2022/01/13 12:17:13;;;;;;;0.50;0.50;;;5.50;99.90;;;;;;5064494;28;20742;-76
2022/01/13 12:19:45;;;;;;;0.50;0.50;;;5.60;99.90;;;;;;5065671;28;20801;-73
2022/01/13 12:22:30;;;;;;;0.50;0.50;;;5.60;99.90;;;;;;5054320;28;20215;-77
2022/01/13 12:24:58;;;;;;;0.52;0.52;;;5.70;99.90;;;;;;5067980;28;20219;-74
2022/01/13 12:27:45;;;;;;;0.70;0.70;;;5.80;99.90;;;;;;5065276;28;20747;-77
2022/01/13 12:30:12;;;;;;;0.60;0.60;;;5.80;99.90;;;;;;5064977;28;20204;-75
2022/01/13 12:32:40;;;;;;;0.52;0.52;;;5.80;99.90;;;;;;5067544;28;20216;-76
2022/01/13 12:35:12;;;;;;;0.50;0.50;;;5.80;99.90;;;;;;5067024;28;20204;-76
2022/01/13 12:37:39;;;;;;;0.70;0.70;;;5.80;99.90;;;;;;5066807;28;20258;-77
2022/01/13 12:40:25;;;;;;;0.90;0.90;;;5.60;99.90;;;;;;5065637;28;20197;-77
2022/01/13 12:42:53;;;;;;;0.63;0.63;;;5.70;99.90;;;;;;5065707;28;20609;-77
2022/01/13 12:45:28;;;;;;;0.80;0.80;;;5.80;99.90;;;;;;5067558;28;20750;-75
2022/01/13 12:48:27;;;;;;;0.60;0.60;;;5.90;99.90;;;;;;5067716;28;20211;-76
2022/01/13 12:50:53;;;;;;;0.60;0.60;;;5.80;99.90;;;;;;5062633;28;20746;-77
2022/01/13 12:53:23;;;;;;;0.60;0.60;;;5.60;99.90;;;;;;5067582;28;20279;-76
2022/01/13 12:56:06;;;;;;;4.78;1.55;;;5.50;99.90;;;;;;5062212;28;20250;-77
2022/01/13 12:58:39;;;;;;;0.68;0.68;;;5.50;99.90;;;;;;5053013;28;20573;-76
2022/01/13 13:01:15;;;;;;;0.63;0.63;;;5.60;99.90;;;;;;5066287;28;20212;-76
2022/01/13 13:03:41;;;;;;;0.60;0.60;;;5.60;99.90;;;;;;5061803;28;20659;-77
2022/01/13 13:06:11;;;;;;;1.27;1.17;;;5.60;99.90;;;;;;5056171;28;20209;-76
2022/01/13 13:08:38;;;;;;;0.60;0.60;;;5.40;99.90;;;;;;5066238;28;20197;-76
2022/01/13 13:11:06;;;;;;;0.60;0.60;;;5.00;99.90;;;;;;5066406;28;20296;-76
2022/01/13 13:13:36;;;;;;;0.70;0.70;;;5.20;99.90;;;;;;5067221;28;20280;-79
2022/01/13 13:16:08;;;;;;;0.60;0.60;;;5.20;99.90;;;;;;5067506;28;20225;-77
2022/01/13 13:18:35;;;;;;;0.60;0.60;;;5.00;99.90;;;;;;5066723;28;20201;-77
2022/01/13 13:21:03;;;;;;;0.70;0.70;;;4.70;99.90;;;;;;5066278;28;20201;-75